createdAt,value
2022-11-05T00:00:32.250Z,10.40
2022-11-05T00:03:28.063Z,9.68
2022-11-05T00:06:13.908Z,12.52
2022-11-05T00:09:00.142Z,11.07
2022-11-05T00:11:46.197Z,13.70
2022-11-05T00:14:32.918Z,11.00
2022-11-05T00:17:01.524Z,9.07
2022-11-05T00:19:29.077Z,12.65
2022-11-05T00:22:14.637Z,12.30
2022-11-05T00:25:00.790Z,11.35
2022-11-05T00:27:27.828Z,11.80
2022-11-05T00:29:55.601Z,9.07
2022-11-05T00:32:22.768Z,11.32
2022-11-05T00:34:50.052Z,8.73
2022-11-05T00:37:17.149Z,8.95
2022-11-05T00:39:44.651Z,10.43
2022-11-05T00:42:30.307Z,10.45
2022-11-05T00:45:03.870Z,10.95
2022-11-05T00:47:50.915Z,7.60
2022-11-05T00:50:20.780Z,8.27
2022-11-05T00:52:55.824Z,12.27
2022-11-05T00:55:24.141Z,8.15
2022-11-05T00:57:51.563Z,10.45
2022-11-05T01:00:19.041Z,12.20
2022-11-05T01:02:46.936Z,9.52
2022-11-05T01:05:14.940Z,15.55
2022-11-05T01:07:41.966Z,11.65
2022-11-05T01:10:09.861Z,9.15
2022-11-05T01:12:36.922Z,11.77
2022-11-05T01:15:05.016Z,9.25
2022-11-05T01:17:32.042Z,12.63
2022-11-05T01:19:59.329Z,7.43
2022-11-05T01:22:26.306Z,7.32
2022-11-05T01:24:53.947Z,9.68
2022-11-05T01:27:20.997Z,8.07
2022-11-05T01:29:48.307Z,7.20
2022-11-05T01:32:15.299Z,12.35
2022-11-05T01:34:42.574Z,9.52
2022-11-05T01:37:09.518Z,10.98
2022-11-05T01:39:36.968Z,9.85
2022-11-05T01:42:05.610Z,9.80
2022-11-05T01:44:57.077Z,7.45
2022-11-05T01:47:44.560Z,6.50
2022-11-05T01:50:20.883Z,10.05
2022-11-05T01:52:50.347Z,8.77
2022-11-05T01:55:24.484Z,7.32
2022-11-05T01:57:54.910Z,9.57
2022-11-05T02:00:22.397Z,9.63
2022-11-05T02:02:49.637Z,7.75
2022-11-05T02:05:17.880Z,9.43
2022-11-05T02:07:47.249Z,7.80
2022-11-05T02:10:18.039Z,10.30
2022-11-05T02:12:47.883Z,8.15
2022-11-05T02:15:24.177Z,8.05
2022-11-05T02:17:53.864Z,7.57
2022-11-05T02:20:25.390Z,6.85
2022-11-05T02:23:04.554Z,7.18
2022-11-05T02:25:34.795Z,11.88
2022-11-05T02:28:26.777Z,8.43
2022-11-05T02:31:09.467Z,9.50
2022-11-05T02:33:48.271Z,6.93
2022-11-05T02:36:28.732Z,9.40
2022-11-05T02:39:07.927Z,6.78
2022-11-05T02:41:47.926Z,5.10
2022-11-05T02:44:39.799Z,6.82
2022-11-05T02:47:51.357Z,8.90
2022-11-05T02:50:35.443Z,7.90
2022-11-05T02:53:19.986Z,7.03
2022-11-05T02:55:53.944Z,8.50
2022-11-05T02:58:22.148Z,10.75
2022-11-05T03:00:55.229Z,11.80
2022-11-05T03:03:27.952Z,7.95
2022-11-05T03:06:06.941Z,7.53
2022-11-05T03:08:34.681Z,6.82
2022-11-05T03:11:16.268Z,7.40
2022-11-05T03:14:03.689Z,7.50
2022-11-05T03:16:42.329Z,10.35
2022-11-05T03:19:54.871Z,13.90
2022-11-05T03:22:30.582Z,9.68
2022-11-05T03:25:03.138Z,9.43
2022-11-05T03:27:33.700Z,7.53
2022-11-05T03:30:07.069Z,8.95
2022-11-05T03:32:39.325Z,7.47
2022-11-05T03:35:15.145Z,9.77
2022-11-05T03:37:45.406Z,9.80
2022-11-05T03:40:17.010Z,8.85
2022-11-05T03:42:49.528Z,10.18
2022-11-05T03:45:22.570Z,8.80
2022-11-05T03:47:56.273Z,5.38
2022-11-05T03:50:40.032Z,10.95
2022-11-05T03:53:28.526Z,7.82
2022-11-05T03:56:10.592Z,9.23
2022-11-05T03:58:45.182Z,8.27
2022-11-05T04:01:12.867Z,6.15
2022-11-05T04:03:39.923Z,11.60
2022-11-05T04:06:28.257Z,7.30
2022-11-05T04:09:14.178Z,10.70
2022-11-05T04:12:00.423Z,8.98
2022-11-05T04:14:27.506Z,9.90
2022-11-05T04:17:07.172Z,10.10
2022-11-05T04:19:54.223Z,10.85
2022-11-05T04:22:41.037Z,10.38
2022-11-05T04:25:08.893Z,7.43
2022-11-05T04:27:36.920Z,8.10
2022-11-05T04:30:20.797Z,6.13
2022-11-05T04:33:11.994Z,8.95
2022-11-05T04:35:40.539Z,9.05
2022-11-05T04:38:14.864Z,9.63
2022-11-05T04:40:42.347Z,11.48
2022-11-05T04:43:15.165Z,10.30
2022-11-05T04:45:43.101Z,12.43
2022-11-05T04:48:11.965Z,6.72
2022-11-05T04:50:39.506Z,8.13
2022-11-05T04:53:07.467Z,7.40
2022-11-05T04:55:34.532Z,7.88
2022-11-05T04:58:01.965Z,10.40
2022-11-05T05:00:28.996Z,10.00
2022-11-05T05:02:56.950Z,12.32
2022-11-05T05:05:24.282Z,13.77
2022-11-05T05:07:52.459Z,6.55
2022-11-05T05:10:20.975Z,9.73
2022-11-05T05:15:15.943Z,10.23
2022-11-05T05:17:43.881Z,9.02
2022-11-05T05:20:35.243Z,8.95
2022-11-05T05:23:21.308Z,15.02
2022-11-05T05:25:53.011Z,12.57
2022-11-05T05:28:21.721Z,11.98
2022-11-05T05:30:49.384Z,10.52
2022-11-05T05:33:16.430Z,10.80
2022-11-05T05:35:43.749Z,9.98
2022-11-05T05:38:11.969Z,10.43
2022-11-05T05:40:39.788Z,8.00
2022-11-05T05:43:13.911Z,10.00
2022-11-05T05:48:29.074Z,7.90
2022-11-05T05:51:17.487Z,14.35
2022-11-05T05:53:49.150Z,13.13
2022-11-05T05:56:19.418Z,11.63
2022-11-05T05:58:47.312Z,15.38
2022-11-05T06:01:20.118Z,7.55
2022-11-05T06:06:58.571Z,12.55
2022-11-05T06:09:28.971Z,9.75
2022-11-05T06:11:58.184Z,10.88
2022-11-05T06:14:28.414Z,9.13
2022-11-05T06:17:04.089Z,7.03
2022-11-05T06:19:31.095Z,11.02
2022-11-05T06:21:58.421Z,6.80
2022-11-05T06:24:25.392Z,10.70
2022-11-05T06:26:52.725Z,9.18
2022-11-05T06:29:19.682Z,9.48
2022-11-05T06:31:47.042Z,10.75
2022-11-05T06:34:13.967Z,12.13
2022-11-05T06:36:41.315Z,7.80
2022-11-05T06:39:12.588Z,10.43
2022-11-05T06:42:04.146Z,7.72
2022-11-05T06:44:27.907Z,7.50
2022-11-05T06:46:55.293Z,9.05
2022-11-05T06:49:24.784Z,8.65
2022-11-05T06:51:52.951Z,9.70
2022-11-05T06:54:20.073Z,10.18
2022-11-05T06:56:47.525Z,11.15
2022-11-05T06:59:14.881Z,10.57
2022-11-05T07:01:42.433Z,10.27
2022-11-05T07:04:16.023Z,9.50
2022-11-05T07:06:44.955Z,9.32
2022-11-05T07:09:12.087Z,9.88
2022-11-05T07:11:39.667Z,15.75
2022-11-05T07:14:06.741Z,12.43
2022-11-05T07:16:35.378Z,8.73
2022-11-05T07:19:03.046Z,8.82
2022-11-05T07:21:40.461Z,9.23
2022-11-05T07:24:08.229Z,12.60
2022-11-05T07:26:35.873Z,10.50
2022-11-05T07:29:03.040Z,8.50
2022-11-05T07:31:30.531Z,12.45
2022-11-05T07:33:59.267Z,7.72
2022-11-05T07:36:26.865Z,8.95
2022-11-05T07:38:58.943Z,12.63
2022-11-05T07:41:28.138Z,7.18
2022-11-05T07:43:55.252Z,9.52
2022-11-05T07:46:25.972Z,6.03
2022-11-05T07:48:53.024Z,9.85
2022-11-05T07:51:20.455Z,7.75
2022-11-05T07:53:48.635Z,8.85
2022-11-05T07:56:16.780Z,6.22
2022-11-05T07:58:46.792Z,6.75
2022-11-05T08:01:16.935Z,6.25
2022-11-05T08:03:46.443Z,8.45
2022-11-05T08:06:18.291Z,7.57
2022-11-05T08:08:45.575Z,3.70
2022-11-05T08:11:16.980Z,8.57
2022-11-05T08:13:44.186Z,9.10
2022-11-05T08:16:12.194Z,9.25
2022-11-05T08:18:48.121Z,4.95
2022-11-05T08:21:15.597Z,12.93
2022-11-05T08:23:43.137Z,8.32
2022-11-05T08:26:11.785Z,8.77
2022-11-05T08:28:39.216Z,7.82
2022-11-05T08:31:08.072Z,9.90
2022-11-05T08:33:37.458Z,10.18
2022-11-05T08:36:06.857Z,12.27
2022-11-05T08:38:40.442Z,10.00
2022-11-05T08:41:18.715Z,12.05
2022-11-05T08:43:47.751Z,7.85
2022-11-05T08:46:16.494Z,9.40
2022-11-05T08:48:45.401Z,7.18
2022-11-05T08:53:57.970Z,8.65
2022-11-05T08:56:25.317Z,9.00
2022-11-05T08:58:52.482Z,5.97
2022-11-05T09:01:30.669Z,6.78
2022-11-05T09:04:00.669Z,8.70
2022-11-05T09:06:40.885Z,7.65
2022-11-05T09:09:08.335Z,8.63
2022-11-05T09:11:57.449Z,6.70
2022-11-05T09:14:23.156Z,8.70
2022-11-05T09:16:50.584Z,8.63
2022-11-05T09:19:17.618Z,8.30
2022-11-05T09:21:45.085Z,9.80
2022-11-05T09:24:12.545Z,7.53
2022-11-05T09:26:40.131Z,6.80
2022-11-05T09:29:13.155Z,9.30
2022-11-05T09:31:42.073Z,8.50
2022-11-05T09:34:10.905Z,4.70
2022-11-05T09:36:38.323Z,8.20
2022-11-05T09:39:05.638Z,5.65
2022-11-05T09:41:39.005Z,6.78
2022-11-05T09:44:14.732Z,8.20
2022-11-05T09:46:52.205Z,7.43
2022-11-05T09:49:33.481Z,7.75
2022-11-05T09:52:02.544Z,6.35
2022-11-05T09:54:36.523Z,7.55
2022-11-05T09:57:14.105Z,9.77
2022-11-05T10:00:10.418Z,8.35
2022-11-05T10:03:16.582Z,7.57
2022-11-05T10:05:49.240Z,7.70
2022-11-05T10:08:29.248Z,6.00
2022-11-05T10:11:30.586Z,4.47
2022-11-05T10:14:06.936Z,4.13
2022-11-05T10:16:37.920Z,5.97
2022-11-05T10:19:22.163Z,6.28
2022-11-05T10:22:10.191Z,7.60
2022-11-05T10:24:50.581Z,12.10
2022-11-05T10:27:38.397Z,5.07
2022-11-05T10:30:07.561Z,6.18
2022-11-05T10:35:08.653Z,3.08
2022-11-05T10:37:40.672Z,3.92
2022-11-05T10:40:50.096Z,5.25
2022-11-05T10:43:25.191Z,6.72
2022-11-05T10:46:30.195Z,6.38
2022-11-05T10:49:03.201Z,6.30
2022-11-05T10:51:31.982Z,5.47
2022-11-05T10:54:05.595Z,7.78
2022-11-05T10:56:38.804Z,4.55
2022-11-05T10:59:19.162Z,5.90
2022-11-05T11:01:46.894Z,3.90
2022-11-05T11:04:22.436Z,5.80
2022-11-05T11:12:49.954Z,5.13
2022-11-05T11:15:28.187Z,9.82
2022-11-05T11:17:57.275Z,5.80
2022-11-05T11:23:15.786Z,5.00
2022-11-05T11:25:52.308Z,6.40
2022-11-05T11:28:29.881Z,3.60
2022-11-05T11:31:22.548Z,4.43
2022-11-05T11:34:01.764Z,7.38
2022-11-05T11:39:06.091Z,5.07
2022-11-05T11:41:43.093Z,4.97
2022-11-05T11:44:18.839Z,3.22
2022-11-05T11:46:51.264Z,4.13
2022-11-05T11:49:48.914Z,4.22
2022-11-05T11:52:27.057Z,4.00
2022-11-05T11:58:22.250Z,7.22
2022-11-05T12:01:07.635Z,4.95
2022-11-05T12:03:43.037Z,7.28
2022-11-05T12:06:29.846Z,7.53
2022-11-05T12:09:20.172Z,7.93
2022-11-05T12:12:16.236Z,4.20
2022-11-05T12:14:51.042Z,5.50
2022-11-05T12:20:18.791Z,4.78
2022-11-05T12:23:01.197Z,14.07
2022-11-05T12:25:51.097Z,6.43
2022-11-05T12:28:36.185Z,5.28
2022-11-05T12:31:31.199Z,3.97
2022-11-05T12:34:25.042Z,5.95
2022-11-05T12:37:32.846Z,7.90
2022-11-05T12:40:20.770Z,6.13
2022-11-05T12:43:01.156Z,4.50
2022-11-05T12:45:51.784Z,4.53
2022-11-05T12:48:38.571Z,6.15
2022-11-05T12:51:29.105Z,5.85
2022-11-05T12:54:11.653Z,6.10
2022-11-05T12:56:50.093Z,4.25
2022-11-05T12:59:17.033Z,4.90
2022-11-05T13:01:50.333Z,3.80
2022-11-05T13:04:41.979Z,4.53
2022-11-05T13:07:15.340Z,5.47
2022-11-05T13:10:24.239Z,3.70
2022-11-05T13:13:07.877Z,5.10
2022-11-05T13:15:45.496Z,6.18
2022-11-05T13:18:18.398Z,7.05
2022-11-05T13:20:53.803Z,5.13
2022-11-05T13:23:22.412Z,6.57
2022-11-05T13:26:08.362Z,5.55
2022-11-05T13:29:01.165Z,4.22
2022-11-05T13:31:33.361Z,3.20
2022-11-05T13:34:13.175Z,5.70
2022-11-05T13:37:12.858Z,4.47
2022-11-05T13:40:09.215Z,6.00
2022-11-05T13:46:05.353Z,5.82
2022-11-05T13:48:50.934Z,6.05
2022-11-05T13:51:32.461Z,3.60
2022-11-05T13:54:03.527Z,6.05
2022-11-05T13:56:54.063Z,9.90
2022-11-05T13:59:26.924Z,4.88
2022-11-05T14:01:58.674Z,5.15
2022-11-05T14:04:38.149Z,5.15
2022-11-05T14:07:23.477Z,3.88
2022-11-05T14:09:58.765Z,5.00
2022-11-05T14:12:30.940Z,5.15
2022-11-05T14:15:34.885Z,5.45
2022-11-05T14:18:44.136Z,6.22
2022-11-05T14:25:31.953Z,5.28
2022-11-05T14:27:59.359Z,5.40
2022-11-05T14:30:59.671Z,4.45
2022-11-05T14:33:26.915Z,5.30
2022-11-05T14:36:22.108Z,5.68
2022-11-05T14:39:26.827Z,4.10
2022-11-05T14:42:20.009Z,6.63
2022-11-05T14:45:05.997Z,4.80
2022-11-05T14:47:39.348Z,7.13
2022-11-05T14:50:39.280Z,3.83
2022-11-05T14:53:35.159Z,5.50
2022-11-05T15:04:00.093Z,8.25
2022-11-05T15:06:46.833Z,6.85
2022-11-05T15:09:37.348Z,7.63
2022-11-05T15:12:10.844Z,6.88
2022-11-05T15:14:58.177Z,6.85
2022-11-05T15:18:01.760Z,8.02
2022-11-05T15:20:45.789Z,13.00
2022-11-05T15:23:25.926Z,12.38
2022-11-05T15:26:29.426Z,23.40
2022-11-05T15:33:06.109Z,19.83
2022-11-05T15:38:34.237Z,20.90
2022-11-05T15:41:18.762Z,23.58
2022-11-05T15:43:55.647Z,20.95
2022-11-05T15:46:28.465Z,25.88
2022-11-05T15:49:07.136Z,14.50
2022-11-05T15:51:36.268Z,14.05
2022-11-05T15:56:56.742Z,18.92
2022-11-05T15:59:29.016Z,17.30
2022-11-05T16:02:19.008Z,18.05
2022-11-05T16:04:50.791Z,12.82
2022-11-05T16:07:18.911Z,15.25
2022-11-05T16:09:57.119Z,24.67
2022-11-05T16:12:32.594Z,21.33
2022-11-05T16:15:15.304Z,21.48
2022-11-05T16:17:57.633Z,28.33
2022-11-05T16:20:35.826Z,21.83
2022-11-05T16:23:25.924Z,23.45
2022-11-05T16:27:02.404Z,23.40
2022-11-05T16:29:57.462Z,17.77
2022-11-05T16:32:31.017Z,14.10
2022-11-05T16:35:22.810Z,17.42
2022-11-05T16:38:04.862Z,16.83
2022-11-05T16:41:05.409Z,14.13
2022-11-05T16:43:41.070Z,13.05
2022-11-05T16:46:13.479Z,17.27
2022-11-05T16:48:41.206Z,15.30
2022-11-05T16:51:27.486Z,15.10
2022-11-05T16:54:10.450Z,10.15
2022-11-05T16:57:00.385Z,13.73
2022-11-05T16:59:35.797Z,16.52
2022-11-05T17:02:11.431Z,15.18
2022-11-05T17:04:41.087Z,18.90
2022-11-05T17:07:13.532Z,17.55
2022-11-05T17:13:02.296Z,17.00
2022-11-05T17:15:51.953Z,12.60
2022-11-05T17:18:19.646Z,16.88
2022-11-05T17:20:53.013Z,18.67
2022-11-05T17:23:22.935Z,18.80
2022-11-05T17:25:56.305Z,17.88
2022-11-05T17:28:24.800Z,21.13
2022-11-05T17:30:53.257Z,18.98
2022-11-05T17:33:23.009Z,18.40
2022-11-05T17:35:53.126Z,22.13
2022-11-05T17:38:21.587Z,21.23
2022-11-05T17:43:24.772Z,15.80
2022-11-05T17:46:03.097Z,17.05
2022-11-05T17:48:32.025Z,21.88
2022-11-05T17:50:59.777Z,17.42
2022-11-05T17:53:26.825Z,21.25
2022-11-05T17:55:55.286Z,24.98
2022-11-05T17:58:31.035Z,14.48
2022-11-05T18:00:59.218Z,18.45
2022-11-05T18:03:26.335Z,15.98
2022-11-05T18:05:54.035Z,16.20
2022-11-05T18:08:21.108Z,20.75
2022-11-05T18:10:49.534Z,21.17
2022-11-05T18:13:16.670Z,22.23
2022-11-05T18:15:44.761Z,16.25
2022-11-05T18:18:11.968Z,21.17
2022-11-05T18:24:07.228Z,21.35
2022-11-05T18:26:36.061Z,23.48
2022-11-05T18:29:06.820Z,22.10
2022-11-05T18:31:34.584Z,18.92
2022-11-05T18:34:01.910Z,23.13
2022-11-05T18:36:35.333Z,20.88
2022-11-05T18:39:07.368Z,20.00
2022-11-05T18:41:39.371Z,17.55
2022-11-05T18:44:08.263Z,20.58
2022-11-05T18:46:57.601Z,17.38
2022-11-05T18:49:29.520Z,19.63
2022-11-05T18:51:57.191Z,16.75
2022-11-05T18:54:26.955Z,16.92
2022-11-05T18:56:56.267Z,18.05
2022-11-05T18:59:37.744Z,15.65
2022-11-05T19:02:11.591Z,18.67
2022-11-05T19:04:50.527Z,19.33
2022-11-05T19:07:30.227Z,18.77
2022-11-05T19:12:55.065Z,17.52
2022-11-05T19:15:25.437Z,16.95
2022-11-05T19:17:57.206Z,23.17
2022-11-05T19:20:25.817Z,17.95
2022-11-05T19:22:55.612Z,17.88
2022-11-05T19:25:30.073Z,18.63
2022-11-05T19:27:58.697Z,16.70
2022-11-05T19:30:26.919Z,22.60
2022-11-05T19:32:54.218Z,19.02
2022-11-05T19:53:50.242Z,16.52
2022-11-05T20:14:56.070Z,11.82
2022-11-05T20:17:24.005Z,10.98
2022-11-05T20:20:03.520Z,14.35
2022-11-05T20:22:32.829Z,11.23
2022-11-05T20:24:59.893Z,12.82
2022-11-05T20:27:27.227Z,13.27
2022-11-05T20:29:55.524Z,14.88
2022-11-05T20:32:26.850Z,11.80
2022-11-05T20:34:54.711Z,10.88
2022-11-05T20:37:23.398Z,12.85
2022-11-05T20:39:50.433Z,10.65
2022-11-05T20:42:21.027Z,12.65
2022-11-05T20:44:50.373Z,13.43
2022-11-05T20:47:37.923Z,11.68
2022-11-05T20:50:18.138Z,12.88
2022-11-05T20:52:46.229Z,12.40
2022-11-05T20:55:14.022Z,17.27
2022-11-05T20:57:41.283Z,10.57
2022-11-05T21:00:10.214Z,16.75
2022-11-05T21:02:38.342Z,11.32
2022-11-05T21:05:09.634Z,14.10
2022-11-05T21:07:36.795Z,15.10
2022-11-05T21:10:05.554Z,12.23
2022-11-05T21:12:32.993Z,14.57
2022-11-05T21:15:00.508Z,11.68
2022-11-05T21:17:27.740Z,12.45
2022-11-05T21:19:56.176Z,14.68
2022-11-05T21:22:23.136Z,16.52
2022-11-05T21:24:50.825Z,11.30
2022-11-05T21:27:17.880Z,13.38
2022-11-05T21:29:45.273Z,12.65
2022-11-05T21:32:12.586Z,10.88
2022-11-05T21:34:39.884Z,13.82
2022-11-05T21:37:07.006Z,12.75
2022-11-05T21:39:34.979Z,10.40
2022-11-05T21:42:02.824Z,11.95
2022-11-05T21:44:30.178Z,14.48
2022-11-05T21:46:58.561Z,11.20
2022-11-05T21:52:33.732Z,12.15
2022-11-05T21:55:20.768Z,10.30
2022-11-05T21:58:06.526Z,12.32
2022-11-05T22:00:33.923Z,8.35
2022-11-05T22:03:01.091Z,10.25
2022-11-05T22:05:28.537Z,11.15
2022-11-05T22:07:56.174Z,11.68
2022-11-05T22:10:24.015Z,10.15
2022-11-05T22:12:51.084Z,11.60
2022-11-05T22:15:18.975Z,6.97
2022-11-05T22:17:56.606Z,14.32
2022-11-05T22:20:23.957Z,8.38
2022-11-05T22:22:51.182Z,8.02
2022-11-05T22:25:19.535Z,9.82
2022-11-05T22:27:47.771Z,8.35
2022-11-05T22:30:15.363Z,8.90
2022-11-05T22:32:42.955Z,12.68
2022-11-05T22:35:12.813Z,8.30
2022-11-05T22:37:41.296Z,11.30
2022-11-05T22:40:09.797Z,6.45
2022-11-05T22:42:37.361Z,12.10
2022-11-05T22:45:05.373Z,8.07
2022-11-05T22:47:33.305Z,8.52
2022-11-05T22:50:01.527Z,6.85
2022-11-05T22:52:28.677Z,6.15
2022-11-05T22:54:55.953Z,8.23
2022-11-05T22:57:22.961Z,8.57
2022-11-05T22:59:51.543Z,7.05
2022-11-05T23:02:18.687Z,9.48
2022-11-05T23:04:46.227Z,9.55
2022-11-05T23:07:31.826Z,7.18
2022-11-05T23:10:18.027Z,9.18
2022-11-05T23:12:45.045Z,8.82
2022-11-05T23:15:32.917Z,10.55
2022-11-05T23:18:18.464Z,6.32
2022-11-05T23:21:04.699Z,8.15
2022-11-05T23:23:50.522Z,7.78
2022-11-05T23:26:36.470Z,8.75
2022-11-05T23:29:06.898Z,8.85
2022-11-05T23:32:12.715Z,7.65
2022-11-05T23:34:39.796Z,8.50
2022-11-05T23:37:26.176Z,8.68
2022-11-05T23:39:53.562Z,6.30
2022-11-05T23:42:39.963Z,6.40
2022-11-05T23:45:26.635Z,7.97
2022-11-05T23:48:14.213Z,11.45
2022-11-05T23:50:42.985Z,6.13
2022-11-05T23:53:10.859Z,8.10
2022-11-05T23:55:39.894Z,6.70
2022-11-05T23:58:07.978Z,7.90
